Time;durP1;ratioP1;P1;durP2;ratioP2;P2;SDS_P1;SDS_P2;PMS_P1;PMS_P2;Temp;Humidity;BMP_temperature;BMP_pressure;BME280_temperature;BME280_humidity;BME280_pressure;Samples;Min_cycle;Max_cycle;Signal;HPM_P1;HPM_P2
2022/06/14 00:01:47;;;;;;;12.13;5.70;;;;;;;18.74;44.14;98517.34;8351743;28;20545;-75
2022/06/14 00:05:52;;;;;;;8.83;4.97;;;;;;;18.67;44.50;98518.72;8351516;28;20421;-75
2022/06/14 00:09:54;;;;;;;7.40;4.47;;;;;;;18.60;44.07;98515.69;8351289;28;20235;-76
2022/06/14 00:14:00;;;;;;;10.77;4.47;;;;;;;18.49;43.92;98515.59;8351399;28;20259;-75
2022/06/14 00:18:02;;;;;;;10.30;4.80;;;;;;;18.41;44.12;98510.00;8351109;28;20243;-75
2022/06/14 00:22:08;;;;;;;9.77;4.80;;;;;;;18.41;44.08;98513.47;8351032;28;20232;-75
2022/06/14 00:26:12;;;;;;;11.43;4.77;;;;;;;18.31;44.18;98509.78;8350903;28;20534;-75
2022/06/14 00:30:15;;;;;;;7.10;4.27;;;;;;;18.26;44.41;98515.34;8350586;28;20232;-75
2022/06/14 00:34:18;;;;;;;7.13;3.90;;;;;;;18.23;44.58;98520.78;8350787;28;20437;-75
2022/06/14 00:38:22;;;;;;;7.13;4.43;;;;;;;18.15;44.72;98523.91;8350561;28;20228;-75
2022/06/14 00:42:25;;;;;;;5.93;4.20;;;;;;;18.13;44.36;98530.22;8317197;28;20237;-75
2022/06/14 00:46:30;;;;;;;8.67;4.53;;;;;;;18.15;44.88;98523.91;8317443;28;20240;-75
2022/06/14 00:50:36;;;;;;;8.63;4.30;;;;;;;18.14;45.16;98531.88;8317491;28;20236;-75
2022/06/14 00:54:42;;;;;;;7.40;4.50;;;;;;;18.14;45.59;98524.88;8317400;28;20224;-75
2022/06/14 00:58:48;;;;;;;12.63;5.20;;;;;;;18.09;45.76;98531.38;8315597;28;20225;-76
2022/06/14 01:02:53;;;;;;;8.03;4.83;;;;;;;18.00;46.16;98526.72;8316803;28;20299;-75
2022/06/14 01:06:59;;;;;;;8.20;5.10;;;;;;;18.12;46.17;98545.06;8316885;28;20531;-75
2022/06/14 01:11:05;;;;;;;6.73;4.63;;;;;;;18.11;46.25;98538.19;8316577;28;20236;-75
2022/06/14 01:15:15;;;;;;;6.33;4.60;;;;;;;18.02;46.37;98538.78;8316614;28;20437;-75
2022/06/14 01:19:20;;;;;;;8.00;4.50;;;;;;;17.98;46.35;98532.06;8316491;28;20244;-75
2022/06/14 01:23:24;;;;;;;9.07;4.60;;;;;;;17.96;46.58;98524.28;8316021;28;20409;-74
2022/06/14 01:27:28;;;;;;;7.87;4.63;;;;;;;17.93;46.67;98523.66;8316096;28;20240;-75
2022/06/14 01:31:32;;;;;;;9.57;4.53;;;;;;;17.87;46.75;98526.69;8316164;28;20244;-75
2022/06/14 01:35:36;;;;;;;8.30;4.67;;;;;;;17.75;46.75;98523.88;8315678;28;20282;-75
2022/06/14 01:39:40;;;;;;;6.23;4.87;;;;;;;17.65;47.25;98514.09;8316032;28;20236;-76
2022/06/14 01:44:04;;;;;;;7.27;4.70;;;;;;;17.65;46.76;98514.09;8315749;28;20229;-76
2022/06/14 01:48:12;;;;;;;8.03;5.07;;;;;;;17.62;47.01;98522.16;8315685;28;20236;-75
2022/06/14 01:52:28;;;;;;;10.10;5.47;;;;;;;17.49;47.21;98515.09;8315647;28;20236;-75
2022/06/14 01:56:42;;;;;;;8.13;5.50;;;;;;;17.37;47.67;98526.34;8322115;28;20229;-75
2022/06/14 02:00:51;;;;;;;7.47;5.10;;;;;;;17.38;47.57;98513.16;8315389;28;20224;-76
2022/06/14 02:05:02;;;;;;;9.67;5.03;;;;;;;17.32;47.94;98520.56;8315240;28;20247;-75
2022/06/14 02:09:11;;;;;;;7.63;5.00;;;;;;;17.31;48.13;98526.75;8315037;28;20548;-75
2022/06/14 02:13:17;;;;;;;7.77;5.00;;;;;;;17.24;48.17;98523.66;8315063;28;20243;-75
2022/06/14 02:17:25;;;;;;;8.67;5.33;;;;;;;17.17;48.17;98520.59;8314911;28;20304;-75
2022/06/14 02:21:32;;;;;;;8.00;4.90;;;;;;;17.18;48.58;98516.19;8314550;28;20236;-75
2022/06/14 02:25:39;;;;;;;8.17;5.30;;;;;;;17.28;48.31;98521.69;8314813;28;20457;-75
2022/06/14 02:29:46;;;;;;;7.13;4.90;;;;;;;17.24;48.14;98522.81;8314710;28;20240;-75
2022/06/14 02:33:53;;;;;;;6.80;5.13;;;;;;;17.22;48.21;98524.69;8314739;28;20519;-75
2022/06/14 02:37:59;;;;;;;8.30;5.40;;;;;;;17.08;48.37;98518.56;8314566;28;20240;-75
2022/06/14 02:42:06;;;;;;;9.80;5.20;;;;;;;17.02;48.54;98520.69;8314436;28;20435;-75
2022/06/14 02:46:15;;;;;;;9.87;5.10;;;;;;;16.94;49.12;98527.22;8314533;28;20463;-75
2022/06/14 02:50:20;;;;;;;6.77;5.13;;;;;;;17.02;48.85;98523.31;8318984;28;20282;-76
2022/06/14 02:54:26;;;;;;;6.73;5.33;;;;;;;16.97;48.67;98526.22;8328658;28;20224;-75
2022/06/14 02:58:32;;;;;;;8.17;5.50;;;;;;;16.87;48.87;98520.72;8320927;28;20228;-75
2022/06/14 03:02:40;;;;;;;7.60;5.37;;;;;;;16.83;49.25;98534.06;8320829;28;20233;-75
2022/06/14 03:06:49;;;;;;;6.70;5.67;;;;;;;16.88;48.95;98532.00;8320730;28;20231;-75
2022/06/14 03:10:58;;;;;;;8.67;5.70;;;;;;;16.74;49.05;98535.44;8320509;28;20545;-75
2022/06/14 03:15:07;;;;;;;8.33;6.00;;;;;;;16.71;49.14;98531.22;8320440;28;20237;-75
2022/06/14 03:19:18;;;;;;;10.57;5.90;;;;;;;16.71;49.10;98538.22;8320282;28;20244;-75
2022/06/14 03:23:25;;;;;;;7.00;5.80;;;;;;;16.63;49.53;98545.72;8320194;28;20238;-76
2022/06/14 03:27:33;;;;;;;7.80;5.43;;;;;;;16.62;49.32;98534.41;8326918;28;20247;-75
2022/06/14 03:31:38;;;;;;;7.40;5.80;;;;;;;16.58;49.50;98531.13;8319862;28;20279;-75
2022/06/14 03:35:44;;;;;;;6.43;5.27;;;;;;;16.66;49.36;98525.44;8319879;28;20303;-75
2022/06/14 03:39:52;;;;;;;9.33;5.87;;;;;;;16.61;49.42;98523.09;8319720;28;20228;-75
2022/06/14 03:43:58;;;;;;;9.73;5.43;;;;;;;16.70;49.19;98529.56;8318006;28;20237;-75
2022/06/14 03:48:04;;;;;;;8.57;5.90;;;;;;;16.65;49.17;98528.97;8317485;28;20543;-75
2022/06/14 03:52:16;;;;;;;11.73;6.20;;;;;;;16.68;49.12;98533.19;8317353;28;20248;-75
2022/06/14 03:56:35;;;;;;;11.40;6.07;;;;;;;16.57;49.28;98528.59;8317223;28;20240;-76
2022/06/14 04:00:41;;;;;;;10.13;5.83;;;;;;;16.61;49.64;98533.56;8322613;28;20233;-75
2022/06/14 04:04:51;;;;;;;7.23;5.53;;;;;;;16.60;49.39;98544.97;8316914;28;20224;-75
2022/06/14 04:09:03;;;;;;;10.93;6.00;;;;;;;16.56;49.72;98538.25;8316856;28;20229;-75
2022/06/14 04:13:13;;;;;;;10.97;6.40;;;;;;;16.61;49.84;98537.94;8316953;28;20430;-75
2022/06/14 04:17:21;;;;;;;9.33;6.80;;;;;;;16.54;50.14;98531.41;8316692;28;20237;-75
2022/06/14 04:21:32;;;;;;;9.93;6.40;;;;;;;16.63;49.74;98536.06;8316070;28;20239;-75
2022/06/14 04:25:40;;;;;;;11.87;6.17;;;;;;;16.72;49.79;98535.53;8316569;28;20233;-75
2022/06/14 04:29:47;;;;;;;9.30;5.93;;;;;;;16.76;49.73;98541.41;8316376;28;20417;-75
2022/06/14 04:33:54;;;;;;;9.60;5.53;;;;;;;16.77;49.27;98535.25;8316372;28;20240;-75
2022/06/14 04:38:02;;;;;;;10.53;5.03;;;;;;;16.87;48.23;98544.25;8316230;28;20236;-75
2022/06/14 04:42:09;;;;;;;8.07;4.67;;;;;;;16.94;48.58;98542.09;8279521;28;1060976;-75
2022/06/14 04:46:15;;;;;;;8.00;4.57;;;;;;;16.99;48.40;98535.66;8317515;28;20450;-75
2022/06/14 04:50:21;;;;;;;8.70;5.00;;;;;;;16.98;48.41;98533.97;8317439;28;20244;-75
2022/06/14 04:54:27;;;;;;;7.60;4.87;;;;;;;17.03;47.74;98543.31;8317039;28;20252;-75
2022/06/14 04:58:37;;;;;;;7.57;4.73;;;;;;;17.00;47.63;98544.31;8317138;28;20404;-75
2022/06/14 05:02:44;;;;;;;8.93;4.50;;;;;;;17.05;47.64;98538.81;8317035;28;20239;-75
2022/06/14 05:06:49;;;;;;;6.73;4.47;;;;;;;16.97;48.49;98537.50;8317051;28;20236;-75
2022/06/14 05:10:55;;;;;;;6.73;4.13;;;;;;;17.17;48.39;98538.06;8316018;28;20233;-75
2022/06/14 05:15:03;;;;;;;5.57;3.87;;;;;;;17.25;48.09;98535.81;8316794;28;20236;-75
2022/06/14 05:19:10;;;;;;;7.10;3.90;;;;;;;17.36;47.71;98538.59;8316740;28;20324;-75
2022/06/14 05:23:17;;;;;;;9.10;4.27;;;;;;;17.40;47.43;98539.22;8316518;28;20464;-76
2022/06/14 05:27:34;;;;;;;7.87;4.00;;;;;;;17.50;47.22;98536.88;8316347;28;20228;-76
2022/06/14 05:31:42;;;;;;;8.83;4.10;;;;;;;17.50;47.32;98536.88;8316027;28;20247;-75
2022/06/14 05:35:47;;;;;;;9.93;4.90;;;;;;;17.36;47.81;98536.00;8316292;28;20524;-75
2022/06/14 05:39:55;;;;;;;8.43;4.80;;;;;;;17.71;47.03;98540.75;8316223;28;20232;-75
2022/06/14 05:44:04;;;;;;;5.50;3.43;;;;;;;17.82;47.08;98536.56;8315869;28;20567;-75
2022/06/14 05:48:10;;;;;;;7.37;4.53;;;;;;;18.04;46.80;98546.53;8315894;28;20543;-75
2022/06/14 05:52:17;;;;;;;7.67;3.63;;;;;;;18.16;46.42;98543.09;8315742;28;20571;-76
2022/06/14 05:56:24;;;;;;;5.97;3.50;;;;;;;18.40;44.75;98542.41;8315626;28;20229;-76
2022/06/14 06:00:32;;;;;;;9.37;4.40;;;;;;;18.16;45.44;98546.59;8315145;28;20221;-74
2022/06/14 06:04:41;;;;;;;9.63;4.40;;;;;;;18.56;45.53;98548.28;8315473;28;20232;-75
2022/06/14 06:08:46;;;;;;;7.40;4.10;;;;;;;18.64;44.88;98547.75;8315432;28;20224;-75
2022/06/14 06:12:53;;;;;;;7.90;4.00;;;;;;;18.89;44.48;98542.56;8315071;28;20232;-75
2022/06/14 06:17:00;;;;;;;9.70;4.27;;;;;;;18.98;44.59;98555.97;8315180;28;20567;-75
2022/06/14 06:21:08;;;;;;;8.33;4.70;;;;;;;18.74;43.89;98556.72;8315074;28;20236;-76
2022/06/14 06:25:13;;;;;;;10.63;4.23;;;;;;;19.16;43.57;98551.25;8314900;28;20236;-76
2022/06/14 06:29:20;;;;;;;5.40;3.73;;;;;;;19.34;42.79;98549.94;8314991;28;20240;-76
2022/06/14 06:33:25;;;;;;;11.33;4.33;;;;;;;19.45;43.36;98538.66;8314329;28;20430;-75
2022/06/14 06:37:32;;;;;;;9.87;4.57;;;;;;;19.33;42.57;98543.84;8314772;28;20312;-75
2022/06/14 06:41:52;;;;;;;9.43;4.03;;;;;;;19.42;43.11;98544.13;8314622;28;20244;-75
2022/06/14 06:45:55;;;;;;;6.67;3.80;;;;;;;19.83;41.54;98542.97;8314663;28;20414;-76
2022/06/14 06:50:17;;;;;;;7.07;3.20;;;;;;;19.88;42.19;98541.69;8314522;28;20233;-76
2022/06/14 06:54:25;;;;;;;7.83;3.70;;;;;;;19.94;40.74;98548.28;8314228;28;20237;-75
2022/06/14 06:58:32;;;;;;;6.67;3.40;;;;;;;20.08;40.73;98547.25;8339493;28;20240;-74
2022/06/14 07:02:40;;;;;;;9.20;2.93;;;;;;;19.84;39.63;98540.22;8347114;28;20267;-75
2022/06/14 07:06:46;;;;;;;7.43;3.00;;;;;;;20.21;39.59;98547.19;8347214;28;20559;-75
2022/06/14 07:10:52;;;;;;;3.93;2.63;;;;;;;20.16;38.29;98544.03;8346875;28;20532;-75
2022/06/14 07:15:00;;;;;;;5.67;2.47;;;;;;;20.14;38.43;98532.81;8346888;28;20232;-75
2022/06/14 07:19:15;;;;;;;6.73;2.83;;;;;;;20.48;38.20;98531.94;8346916;28;20251;-75
2022/06/14 07:23:23;;;;;;;5.37;2.60;;;;;;;21.11;37.13;98531.53;8346800;28;20228;-76
2022/06/14 07:27:30;;;;;;;8.37;2.93;;;;;;;20.50;37.53;98531.81;8313668;28;20249;-74
2022/06/14 07:31:37;;;;;;;6.83;2.30;;;;;;;21.09;35.91;98531.66;8313821;28;20437;-75
2022/06/14 07:35:44;;;;;;;7.63;2.33;;;;;;;21.69;35.55;98526.06;8317106;28;20248;-75
2022/06/14 07:39:55;;;;;;;10.27;2.60;;;;;;;20.98;34.47;98528.19;8319776;28;20239;-75
2022/06/14 07:44:13;;;;;;;6.43;2.10;;;;;;;22.02;34.67;98522.44;8319511;28;20260;-75
2022/06/14 07:48:18;;;;;;;7.17;2.30;;;;;;;22.12;33.54;98525.16;8319502;28;20228;-76
2022/06/14 07:52:25;;;;;;;9.13;2.40;;;;;;;22.22;33.18;98519.97;8319293;28;20233;-75
2022/06/14 07:56:31;;;;;;;9.63;2.87;;;;;;;22.70;33.03;98521.28;8318703;28;20240;-75
2022/06/14 08:05:03;;;;;;;6.07;2.13;;;;;;;23.22;31.60;98517.59;8318967;28;20231;-75
2022/06/14 08:09:11;;;;;;;6.87;2.80;;;;;;;22.38;32.43;98522.19;8318799;28;20239;-76
2022/06/14 08:13:19;;;;;;;5.77;2.67;;;;;;;22.90;32.30;98525.66;8318637;28;20590;-75
2022/06/14 08:17:29;;;;;;;7.57;2.30;;;;;;;23.66;31.23;98517.25;8318262;28;20286;-75
2022/06/14 08:21:37;;;;;;;8.87;2.37;;;;;;;23.93;31.14;98516.63;8318388;28;20590;-75
2022/06/14 08:25:43;;;;;;;4.97;2.40;;;;;;;23.90;30.86;98514.25;8318406;28;20435;-75
2022/06/14 08:29:51;;;;;;;4.97;2.20;;;;;;;23.92;30.73;98517.59;8318305;28;20224;-75
2022/06/14 08:33:59;;;;;;;7.60;2.47;;;;;;;24.51;29.91;98518.38;8317911;28;20244;-75
2022/06/14 08:38:06;;;;;;;4.83;2.30;;;;;;;24.84;29.16;98518.00;8317952;28;20571;-76
2022/06/14 08:42:15;;;;;;;12.93;2.83;;;;;;;25.09;28.96;98517.34;8317583;28;20232;-76
2022/06/14 08:46:21;;;;;;;6.50;2.20;;;;;;;25.35;28.45;98509.56;8316456;28;20245;-76
2022/06/14 08:50:52;;;;;;;6.07;2.33;;;;;;;25.90;27.50;98518.41;8317213;28;20238;-75
2022/06/14 08:55:09;;;;;;;7.13;2.27;;;;;;;25.86;27.25;98517.03;8317522;28;20236;-76
2022/06/14 08:59:36;;;;;;;6.17;2.10;;;;;;;26.18;26.07;98513.00;8317296;28;20236;-76
2022/06/14 09:03:58;;;;;;;5.77;2.20;;;;;;;26.09;26.04;98512.94;8316819;28;20224;-76
2022/06/14 09:08:44;;;;;;;3.60;1.90;;;;;;;26.48;25.81;98509.94;8349596;28;20301;-76
2022/06/14 09:13:22;;;;;;;4.57;1.73;;;;;;;26.43;24.76;98506.06;8377968;28;20234;-76
2022/06/14 09:17:39;;;;;;;5.23;2.00;;;;;;;26.38;24.63;98503.03;8374363;28;20220;-75
2022/06/14 09:22:04;;;;;;;3.97;1.60;;;;;;;26.77;23.77;98498.16;8382423;28;20232;-76
2022/06/14 09:26:41;;;;;;;3.83;1.83;;;;;;;26.94;21.16;98490.25;8382246;28;20230;-75
2022/06/14 09:31:00;;;;;;;2.67;1.27;;;;;;;27.27;21.69;98486.75;8381971;28;20226;-76
2022/06/14 09:35:16;;;;;;;4.30;1.80;;;;;;;27.42;21.61;98492.28;8382078;28;20241;-76
2022/06/14 09:39:51;;;;;;;4.37;1.90;;;;;;;27.47;20.90;98487.31;8381856;28;20228;-76
2022/06/14 09:44:16;;;;;;;5.20;1.30;;;;;;;27.62;19.65;98482.16;8377645;28;20519;-76
2022/06/14 09:48:33;;;;;;;2.03;1.50;;;;;;;27.87;19.72;98491.03;8381675;28;20266;-76
2022/06/14 09:53:26;;;;;;;7.33;2.17;;;;;;;27.23;19.95;98492.53;8374863;28;20428;-75
2022/06/14 09:57:45;;;;;;;4.00;1.60;;;;;;;28.09;20.71;98488.72;8356011;28;20235;-76
2022/06/14 10:01:55;;;;;;;4.10;1.70;;;;;;;28.43;21.24;98480.50;8381235;28;20232;-77
2022/06/14 10:06:19;;;;;;;3.53;1.90;;;;;;;28.43;20.46;98467.19;8381016;28;20244;-76
2022/06/14 10:10:32;;;;;;;2.80;1.50;;;;;;;28.70;19.25;98477.66;8315162;28;20524;-75
2022/06/14 10:14:50;;;;;;;3.67;1.50;;;;;;;28.48;19.85;98469.34;8347746;28;20241;-76
2022/06/14 10:19:14;;;;;;;3.80;1.40;;;;;;;28.53;17.94;98461.72;8347724;28;20242;-76
2022/06/14 10:23:46;;;;;;;4.47;1.53;;;;;;;28.90;19.12;98451.41;8347583;28;20234;-76
2022/06/14 10:32:47;;;;;;;3.10;1.50;;;;;;;29.21;19.79;98451.47;8347388;28;20242;-76
2022/06/14 10:37:19;;;;;;;4.50;1.77;;;;;;;28.89;19.52;98450.59;8351469;28;20242;-76
2022/06/14 10:41:27;;;;;;;5.80;1.33;;;;;;;29.37;19.14;98445.19;8371740;28;20223;-75
2022/06/14 10:45:33;;;;;;;4.93;1.60;;;;;;;29.33;19.24;98447.38;8380212;28;20234;-76
2022/06/14 10:49:51;;;;;;;5.10;1.67;;;;;;;29.28;20.76;98449.75;8380313;28;20229;-76
2022/06/14 10:53:58;;;;;;;4.17;1.80;;;;;;;28.78;20.09;98440.31;8379826;28;20245;-76
2022/06/14 10:58:26;;;;;;;3.57;1.57;;;;;;;29.35;19.48;98436.53;8379948;28;20230;-76
2022/06/14 11:02:40;;;;;;;4.20;1.50;;;;;;;29.11;19.53;98435.66;8346716;28;20234;-76
2022/06/14 11:07:26;;;;;;;3.83;1.90;;;;;;;29.42;20.45;98435.66;8346894;28;20239;-76
2022/06/14 11:11:39;;;;;;;4.17;1.50;;;;;;;29.96;20.02;98433.94;8377189;28;20235;-76
2022/06/14 11:15:46;;;;;;;3.87;1.60;;;;;;;29.80;18.39;98430.41;8386228;28;20241;-76
2022/06/14 11:19:59;;;;;;;8.77;2.00;;;;;;;29.49;18.34;98422.44;8386338;28;20237;-76
2022/06/14 11:24:05;;;;;;;5.23;1.87;;;;;;;27.59;20.03;98418.66;8386070;28;20231;-76
2022/06/14 11:28:19;;;;;;;2.03;1.30;;;;;;;29.11;20.55;98417.00;8386044;28;20345;-76
2022/06/14 11:32:30;;;;;;;3.50;1.57;;;;;;;29.50;19.63;98413.44;8352470;28;20239;-76
2022/06/14 11:36:42;;;;;;;3.77;1.40;;;;;;;29.75;19.70;98410.59;8352789;28;20231;-75
2022/06/14 11:40:48;;;;;;;4.23;1.63;;;;;;;29.61;18.94;98413.00;8352660;28;20291;-76
2022/06/14 11:45:10;;;;;;;3.47;1.40;;;;;;;29.42;19.19;98398.31;8352312;28;20234;-76
2022/06/14 11:49:16;;;;;;;3.20;1.50;;;;;;;29.91;19.82;98397.13;8352404;28;20590;-76
2022/06/14 11:53:40;;;;;;;3.10;1.40;;;;;;;30.08;19.33;98394.25;8352175;28;20243;-76
2022/06/14 11:57:52;;;;;;;2.53;1.60;;;;;;;30.10;19.01;98393.09;8379433;28;20230;-76
2022/06/14 12:02:08;;;;;;;5.77;1.77;;;;;;;30.16;19.58;98384.34;8385053;28;20239;-76
2022/06/14 12:06:21;;;;;;;3.50;1.60;;;;;;;30.27;19.13;98388.38;8384750;28;20232;-76
2022/06/14 12:10:50;;;;;;;4.03;1.73;;;;;;;30.23;18.88;98372.91;8351280;28;20234;-76
2022/06/14 12:15:06;;;;;;;4.10;1.50;;;;;;;30.19;17.71;98375.94;8351410;28;20251;-76
2022/06/14 12:19:12;;;;;;;5.47;1.53;;;;;;;30.59;20.06;98373.84;8351320;28;20236;-76
2022/06/14 12:23:17;;;;;;;4.47;1.80;;;;;;;30.21;18.60;98378.44;8350962;28;20550;-76
2022/06/14 12:27:20;;;;;;;3.87;1.63;;;;;;;30.55;18.72;98372.56;8350964;28;20251;-76
2022/06/14 12:31:27;;;;;;;5.50;1.97;;;;;;;30.27;18.77;98371.53;8350653;28;20226;-76
2022/06/14 12:35:35;;;;;;;5.00;1.43;;;;;;;30.60;19.80;98364.81;8350929;28;20299;-76
2022/06/14 12:39:42;;;;;;;4.33;1.50;;;;;;;30.63;18.53;98357.44;8350635;28;20228;-76
2022/06/14 12:43:57;;;;;;;3.97;1.70;;;;;;;30.80;19.11;98346.31;8350674;28;20239;-76
2022/06/14 12:48:10;;;;;;;5.00;1.57;;;;;;;30.47;18.78;98350.47;8350499;28;20229;-76
2022/06/14 12:52:18;;;;;;;4.33;1.80;;;;;;;30.26;18.30;98335.97;8350350;28;20230;-77
2022/06/14 12:56:29;;;;;;;4.17;1.63;;;;;;;30.16;18.57;98333.59;8349891;28;20225;-75
2022/06/14 13:00:37;;;;;;;3.17;1.60;;;;;;;29.75;18.83;98331.34;8350108;28;20421;-75
2022/06/14 13:04:43;;;;;;;4.07;1.77;;;;;;;29.65;18.78;98332.59;8349957;28;20245;-76
2022/06/14 13:08:51;;;;;;;5.60;1.73;;;;;;;29.71;19.74;98324.69;8349902;28;20225;-76
2022/06/14 13:13:02;;;;;;;3.60;1.60;;;;;;;28.73;18.85;98320.06;8349495;28;20244;-76
2022/06/14 13:17:14;;;;;;;8.47;1.50;;;;;;;28.69;19.05;98310.78;8349570;28;20234;-76
2022/06/14 13:21:22;;;;;;;2.67;1.30;;;;;;;29.38;20.24;98322.34;8349389;28;20241;-76
2022/06/14 13:25:39;;;;;;;6.13;1.80;;;;;;;28.75;20.06;98310.06;8381933;28;20237;-75
2022/06/14 13:29:53;;;;;;;2.67;1.60;;;;;;;29.11;20.44;98310.34;8382347;28;20569;-76
2022/06/14 13:34:05;;;;;;;3.57;1.70;;;;;;;29.44;19.70;98316.25;8381390;28;20231;-76
2022/06/14 13:38:11;;;;;;;7.13;1.80;;;;;;;29.49;18.07;98310.38;8381920;28;20284;-76
2022/06/14 13:42:21;;;;;;;2.57;1.60;;;;;;;28.02;19.65;98299.56;8381527;28;20247;-76
2022/06/14 13:46:27;;;;;;;2.83;1.40;;;;;;;29.27;18.39;98303.25;8381360;28;20238;-75
2022/06/14 13:50:38;;;;;;;2.37;1.40;;;;;;;28.87;18.34;98291.88;8381438;28;20234;-75
2022/06/14 13:54:44;;;;;;;3.57;1.20;;;;;;;29.44;18.77;98286.94;8381356;28;20245;-75
2022/06/14 13:58:52;;;;;;;4.83;1.50;;;;;;;29.57;18.94;98286.31;8381382;28;20421;-75
2022/06/14 14:02:59;;;;;;;3.63;1.53;;;;;;;29.47;17.55;98290.25;8381227;28;20341;-76
2022/06/14 14:07:10;;;;;;;6.60;1.77;;;;;;;29.67;19.07;98283.38;8381037;28;20284;-76
2022/06/14 14:11:20;;;;;;;3.93;1.50;;;;;;;28.92;18.92;98273.50;8381126;28;20238;-76
2022/06/14 14:15:31;;;;;;;3.63;1.50;;;;;;;29.63;18.82;98277.56;8380522;28;20435;-75
2022/06/14 14:19:43;;;;;;;4.07;1.40;;;;;;;29.59;18.85;98276.28;8380919;28;20232;-76
2022/06/14 14:24:09;;;;;;;6.83;1.40;;;;;;;29.51;18.19;98259.50;8380873;28;20239;-76
2022/06/14 14:28:23;;;;;;;2.57;1.40;;;;;;;29.54;19.07;98261.84;8380745;28;20429;-76
2022/06/14 14:32:31;;;;;;;6.30;1.53;;;;;;;29.37;18.00;98259.31;8380179;28;20233;-75
2022/06/14 14:36:49;;;;;;;2.57;1.60;;;;;;;29.54;18.46;98256.50;8380600;28;20411;-76
2022/06/14 14:45:20;;;;;;;2.40;1.30;;;;;;;28.87;18.00;98241.22;8384954;28;20340;-76
2022/06/14 14:49:30;;;;;;;2.33;1.33;;;;;;;28.90;18.19;98236.38;8386908;28;20534;-75
2022/06/14 14:53:38;;;;;;;3.23;1.40;;;;;;;29.14;17.64;98231.88;8387127;28;20533;-75
2022/06/14 14:57:48;;;;;;;4.53;1.30;;;;;;;29.12;17.86;98236.53;8386658;28;20234;-76
2022/06/14 15:06:16;;;;;;;2.70;1.10;;;;;;;29.04;18.61;98229.41;8386700;28;20234;-76
2022/06/14 15:10:22;;;;;;;4.33;1.50;;;;;;;28.78;17.51;98224.47;8386482;28;20234;-76
2022/06/14 15:14:25;;;;;;;2.43;1.13;;;;;;;28.65;18.25;98219.72;8386011;28;20404;-75
2022/06/14 15:22:51;;;;;;;6.77;1.50;;;;;;;28.21;18.84;98206.97;8386282;28;20232;-76
2022/06/14 15:26:59;;;;;;;2.27;1.20;;;;;;;28.26;23.51;98215.28;8386104;28;20541;-76
2022/06/14 15:31:03;;;;;;;3.83;1.37;;;;;;;28.21;22.25;98199.81;8386091;28;20408;-76
2022/06/14 15:35:21;;;;;;;3.70;1.40;;;;;;;27.94;18.32;98192.31;8385822;28;20446;-76
2022/06/14 15:39:32;;;;;;;3.70;1.43;;;;;;;27.63;19.44;98193.06;8385349;28;20232;-75
2022/06/14 15:43:35;;;;;;;1.93;1.30;;;;;;;27.63;21.16;98190.41;8385327;28;20258;-76
2022/06/14 15:47:40;;;;;;;2.30;1.20;;;;;;;27.52;19.59;98180.13;8385415;28;20246;-76
2022/06/14 15:51:43;;;;;;;2.53;1.10;;;;;;;27.74;20.44;98174.06;8385419;28;20344;-75
2022/06/14 15:55:51;;;;;;;3.17;1.40;;;;;;;27.54;19.83;98175.47;8384578;28;20248;-75
2022/06/14 15:59:58;;;;;;;6.00;1.53;;;;;;;27.60;20.50;98175.59;8385013;28;20227;-76
2022/06/14 16:04:04;;;;;;;3.83;1.50;;;;;;;27.56;20.76;98168.16;8385003;28;20237;-76
2022/06/14 16:08:10;;;;;;;4.20;1.30;;;;;;;27.40;18.77;98158.41;8384771;28;20239;-76
2022/06/14 16:12:22;;;;;;;2.63;1.27;;;;;;;27.55;20.85;98159.34;8384564;28;20234;-76
2022/06/14 16:16:30;;;;;;;4.23;1.60;;;;;;;27.53;20.64;98160.50;8384165;28;20229;-75
2022/06/14 16:20:33;;;;;;;3.57;1.50;;;;;;;27.44;20.25;98159.72;8384444;28;20232;-75
2022/06/14 16:24:39;;;;;;;4.20;1.70;;;;;;;26.78;19.01;98157.13;8384339;28;20239;-75
2022/06/14 16:28:50;;;;;;;3.00;1.60;;;;;;;27.14;20.62;98158.59;8384041;28;20234;-75
2022/06/14 16:33:11;;;;;;;2.03;1.30;;;;;;;27.23;20.28;98154.91;8384080;28;20227;-75
2022/06/14 16:37:20;;;;;;;2.87;1.20;;;;;;;27.24;19.96;98153.91;8383902;28;20238;-76
2022/06/14 16:41:33;;;;;;;2.33;1.30;;;;;;;26.84;19.00;98151.13;8383338;28;20232;-75
2022/06/14 16:45:40;;;;;;;2.43;1.30;;;;;;;26.98;19.43;98146.13;8383672;28;20307;-75
2022/06/14 16:49:47;;;;;;;6.80;1.30;;;;;;;26.91;20.25;98148.66;8383743;28;20239;-76
2022/06/14 16:53:54;;;;;;;1.80;1.17;;;;;;;26.84;20.29;98147.66;8383331;28;20228;-75
2022/06/14 16:58:04;;;;;;;2.90;1.40;;;;;;;26.64;19.52;98144.50;8383083;28;20234;-76
2022/06/14 17:02:20;;;;;;;2.17;1.23;;;;;;;26.58;20.23;98137.16;8383107;28;20237;-76
2022/06/14 17:06:30;;;;;;;2.30;1.30;;;;;;;26.56;19.80;98137.34;8381803;28;20234;-75
2022/06/14 17:10:37;;;;;;;2.67;1.37;;;;;;;26.25;19.81;98135.31;8382940;28;20255;-75
2022/06/14 17:14:46;;;;;;;3.67;1.60;;;;;;;26.06;18.72;98133.78;8382570;28;20249;-75
2022/06/14 17:18:53;;;;;;;2.73;1.60;;;;;;;25.83;19.09;98136.16;8382655;28;20256;-75
2022/06/14 17:23:01;;;;;;;2.43;1.30;;;;;;;25.87;19.72;98126.06;8382422;28;20534;-75
2022/06/14 17:31:31;;;;;;;1.83;1.10;;;;;;;25.68;19.76;98132.47;8381655;28;20223;-76
2022/06/14 17:35:39;;;;;;;3.73;1.10;;;;;;;25.68;19.13;98125.38;8382041;28;20254;-75
2022/06/14 17:39:45;;;;;;;3.13;1.23;;;;;;;25.66;19.68;98124.66;8381751;28;20235;-76
2022/06/14 17:43:49;;;;;;;2.90;1.30;;;;;;;25.53;19.28;98130.44;8381561;28;20234;-75
2022/06/14 17:47:58;;;;;;;2.57;1.27;;;;;;;25.51;19.30;98128.91;8381500;28;20238;-76
2022/06/14 17:52:05;;;;;;;1.97;1.00;;;;;;;25.44;20.65;98127.91;8381375;28;20563;-76
2022/06/14 17:56:13;;;;;;;3.77;1.33;;;;;;;25.39;19.05;98128.38;8381237;28;20234;-76
2022/06/14 18:00:20;;;;;;;5.07;1.43;;;;;;;25.40;19.81;98134.50;8381141;28;20240;-76
2022/06/14 18:04:39;;;;;;;2.70;1.20;;;;;;;25.32;20.38;98130.84;8380801;28;20398;-75
2022/06/14 18:08:51;;;;;;;3.10;1.23;;;;;;;25.30;19.87;98132.81;8380898;28;20244;-75
2022/06/14 18:13:00;;;;;;;5.50;1.23;;;;;;;25.21;20.14;98131.06;8380956;28;20567;-76
2022/06/14 18:17:05;;;;;;;1.57;1.10;;;;;;;25.09;20.06;98135.81;8380605;28;20240;-76
2022/06/14 18:21:13;;;;;;;3.10;1.37;;;;;;;25.08;21.36;98141.25;8380483;28;20228;-76
2022/06/14 18:25:21;;;;;;;5.27;1.60;;;;;;;25.00;22.52;98143.84;8380560;28;20425;-75
2022/06/14 18:29:26;;;;;;;4.43;1.30;;;;;;;24.88;21.81;98133.50;8380133;28;20420;-76
2022/06/14 18:33:32;;;;;;;4.40;1.40;;;;;;;24.87;22.69;98142.44;8380337;28;20239;-75
2022/06/14 18:37:39;;;;;;;3.33;1.60;;;;;;;24.78;22.94;98146.84;8380216;28;20237;-75
2022/06/14 18:41:45;;;;;;;2.93;1.60;;;;;;;24.71;24.10;98137.00;8380250;28;20237;-76
2022/06/14 18:45:50;;;;;;;2.07;1.37;;;;;;;24.53;25.19;98135.22;8380175;28;20239;-76
2022/06/14 18:50:03;;;;;;;7.60;1.87;;;;;;;24.42;26.38;98142.53;8380254;28;20240;-75
2022/06/14 18:54:11;;;;;;;6.30;1.80;;;;;;;24.36;27.36;98141.31;8380004;28;20549;-75
2022/06/14 18:58:19;;;;;;;5.47;1.83;;;;;;;24.30;28.17;98142.75;8379881;28;20664;-76
2022/06/14 19:02:32;;;;;;;3.33;1.80;;;;;;;24.26;27.24;98135.28;8379632;28;20227;-75
2022/06/14 19:07:09;;;;;;;4.17;1.90;;;;;;;24.13;28.02;98138.28;8379793;28;20430;-76
2022/06/14 19:11:21;;;;;;;4.23;1.80;;;;;;;24.04;27.85;98139.19;8379780;28;20227;-75
2022/06/14 19:15:45;;;;;;;5.83;1.97;;;;;;;23.96;29.95;98140.75;8354219;28;20228;-75
2022/06/14 19:20:07;;;;;;;4.37;1.63;;;;;;;23.85;29.43;98135.66;8346665;28;20554;-75
2022/06/14 19:24:22;;;;;;;5.73;1.63;;;;;;;23.76;28.90;98137.38;8346657;28;20542;-76
2022/06/14 19:28:45;;;;;;;7.23;2.03;;;;;;;23.69;29.16;98128.34;8372505;28;20227;-75
2022/06/14 19:32:53;;;;;;;2.53;1.70;;;;;;;23.62;29.97;98133.38;8384661;28;20230;-75
2022/06/14 19:36:59;;;;;;;7.20;2.17;;;;;;;23.55;29.56;98120.91;8385684;28;20254;-75
2022/06/14 19:41:09;;;;;;;5.47;1.80;;;;;;;23.52;28.40;98122.03;8385665;28;20273;-76
2022/06/14 19:45:18;;;;;;;3.83;1.40;;;;;;;23.47;28.56;98137.50;8385254;28;20547;-76
2022/06/14 19:53:45;;;;;;;9.30;2.00;;;;;;;23.30;29.59;98132.97;8352016;28;20243;-75
2022/06/14 19:57:53;;;;;;;4.97;1.77;;;;;;;23.28;30.38;98138.38;8351974;28;20234;-76
2022/06/14 20:01:58;;;;;;;5.27;1.80;;;;;;;23.20;30.43;98139.13;8351928;28;20227;-75
2022/06/14 20:06:03;;;;;;;4.90;1.83;;;;;;;23.10;30.33;98145.41;8351830;28;20235;-76